sensor_id;sensor_type;location;lat;lon;timestamp;pressure;altitude;pressure_sealevel;temperature;humidity
67697;BME280;54486;51.442;6.778;2023-03-21T00:01:53;101531.19;;;10.66;82.99
67697;BME280;54486;51.442;6.778;2023-03-21T00:04:22;101522.47;;;10.61;83.38
67697;BME280;54486;51.442;6.778;2023-03-21T00:06:50;101525.94;;;10.60;83.61
67697;BME280;54486;51.442;6.778;2023-03-21T00:09:20;101519.03;;;10.62;84.11
67697;BME280;54486;51.442;6.778;2023-03-21T00:11:48;101523.34;;;10.60;84.08
67697;BME280;54486;51.442;6.778;2023-03-21T00:14:15;101517.25;;;10.61;83.65
67697;BME280;54486;51.442;6.778;2023-03-21T00:16:46;101511.16;;;10.57;83.55
67697;BME280;54486;51.442;6.778;2023-03-21T00:19:17;101517.25;;;10.55;83.50
67697;BME280;54486;51.442;6.778;2023-03-21T00:21:46;101513.72;;;10.53;82.31
67697;BME280;54486;51.442;6.778;2023-03-21T00:24:35;101517.22;;;10.49;81.88
67697;BME280;54486;51.442;6.778;2023-03-21T00:27:03;101511.97;;;10.46;81.70
67697;BME280;54486;51.442;6.778;2023-03-21T00:29:50;101513.69;;;10.47;81.33
67697;BME280;54486;51.442;6.778;2023-03-21T00:32:19;101511.97;;;10.43;81.74
67697;BME280;54486;51.442;6.778;2023-03-21T00:34:46;101513.69;;;10.44;81.30
67697;BME280;54486;51.442;6.778;2023-03-21T00:37:34;101496.31;;;10.40;81.87
67697;BME280;54486;51.442;6.778;2023-03-21T00:40:01;101503.22;;;10.38;80.93
67697;BME280;54486;51.442;6.778;2023-03-21T00:42:30;101504.09;;;10.38;81.04
67697;BME280;54486;51.442;6.778;2023-03-21T00:44:57;101505.84;;;10.41;80.98
67697;BME280;54486;51.442;6.778;2023-03-21T00:47:24;101493.69;;;10.41;81.58
67697;BME280;54486;51.442;6.778;2023-03-21T00:49:52;101501.53;;;10.43;80.79
67697;BME280;54486;51.442;6.778;2023-03-21T00:52:19;101489.34;;;10.42;80.81
67697;BME280;54486;51.442;6.778;2023-03-21T00:55:06;101484.13;;;10.42;81.12
67697;BME280;54486;51.442;6.778;2023-03-21T00:57:34;101486.72;;;10.40;81.27
67697;BME280;54486;51.442;6.778;2023-03-21T01:00:07;101483.22;;;10.38;81.91
67697;BME280;54486;51.442;6.778;2023-03-21T01:02:40;101477.16;;;10.41;81.75
67697;BME280;54486;51.442;6.778;2023-03-21T01:05:35;101481.50;;;10.43;82.36
67697;BME280;54486;51.442;6.778;2023-03-21T01:08:22;101474.56;;;10.44;82.23
67697;BME280;54486;51.442;6.778;2023-03-21T01:11:02;101468.50;;;10.48;82.18
67697;BME280;54486;51.442;6.778;2023-03-21T01:13:30;101465.03;;;10.49;81.74
67697;BME280;54486;51.442;6.778;2023-03-21T01:16:01;101471.97;;;10.53;81.53
67697;BME280;54486;51.442;6.778;2023-03-21T01:18:31;101465.91;;;10.49;81.43
67697;BME280;54486;51.442;6.778;2023-03-21T01:21:00;101465.06;;;10.55;81.37
67697;BME280;54486;51.442;6.778;2023-03-21T01:23:28;101458.06;;;10.54;81.80
67697;BME280;54486;51.442;6.778;2023-03-21T01:25:56;101461.59;;;10.62;81.88
67697;BME280;54486;51.442;6.778;2023-03-21T01:28:27;101454.59;;;10.52;81.97
67697;BME280;54486;51.442;6.778;2023-03-21T01:30:55;101459.81;;;10.49;81.76
67697;BME280;54486;51.442;6.778;2023-03-21T01:33:23;101453.72;;;10.53;81.86
67697;BME280;54486;51.442;6.778;2023-03-21T01:35:50;101455.47;;;10.54;81.65
67697;BME280;54486;51.442;6.778;2023-03-21T01:38:36;101454.59;;;10.52;81.53
67697;BME280;54486;51.442;6.778;2023-03-21T01:41:03;101451.09;;;10.53;82.03
67697;BME280;54486;51.442;6.778;2023-03-21T01:43:45;101449.38;;;10.52;81.54
67697;BME280;54486;51.442;6.778;2023-03-21T01:48:53;101445.94;;;10.59;81.61
67697;BME280;54486;51.442;6.778;2023-03-21T01:51:22;101449.38;;;10.52;81.45
67697;BME280;54486;51.442;6.778;2023-03-21T01:53:52;101442.44;;;10.52;81.78
67697;BME280;54486;51.442;6.778;2023-03-21T01:56:35;101449.38;;;10.46;81.91
67697;BME280;54486;51.442;6.778;2023-03-21T01:59:42;101451.09;;;10.47;81.71
67697;BME280;54486;51.442;6.778;2023-03-21T02:02:17;101445.00;;;10.45;82.07
67697;BME280;54486;51.442;6.778;2023-03-21T02:04:46;101445.88;;;10.50;82.26
67697;BME280;54486;51.442;6.778;2023-03-21T02:07:19;101444.16;;;10.46;82.77
67697;BME280;54486;51.442;6.778;2023-03-21T02:09:52;101438.94;;;10.46;82.93
67697;BME280;54486;51.442;6.778;2023-03-21T02:12:21;101437.19;;;10.51;82.47
67697;BME280;54486;51.442;6.778;2023-03-21T02:14:50;101440.66;;;10.47;82.92
67697;BME280;54486;51.442;6.778;2023-03-21T02:17:32;101425.00;;;10.47;83.04
67697;BME280;54486;51.442;6.778;2023-03-21T02:20:23;101430.22;;;10.50;82.95
67697;BME280;54486;51.442;6.778;2023-03-21T02:28:23;101418.84;;;10.34;86.59
67697;BME280;54486;51.442;6.778;2023-03-21T02:39:24;101400.63;;;10.33;87.80
67697;BME280;54486;51.442;6.778;2023-03-21T02:42:01;101405.84;;;10.36;87.73
67697;BME280;54486;51.442;6.778;2023-03-21T02:44:48;101404.97;;;10.35;87.66
67697;BME280;54486;51.442;6.778;2023-03-21T02:47:26;101398.88;;;10.35;87.51
67697;BME280;54486;51.442;6.778;2023-03-21T02:50:12;101401.47;;;10.32;87.63
67697;BME280;54486;51.442;6.778;2023-03-21T02:52:44;101397.09;;;10.31;87.62
67697;BME280;54486;51.442;6.778;2023-03-21T02:55:17;101398.84;;;10.29;87.60
67697;BME280;54486;51.442;6.778;2023-03-21T02:57:47;101394.50;;;10.31;87.93
67697;BME280;54486;51.442;6.778;2023-03-21T03:00:20;101389.28;;;10.31;88.00
67697;BME280;54486;51.442;6.778;2023-03-21T03:02:47;101392.78;;;10.37;87.95
67697;BME280;54486;51.442;6.778;2023-03-21T03:05:36;101391.94;;;10.40;87.99
67697;BME280;54486;51.442;6.778;2023-03-21T03:08:23;101381.50;;;10.37;88.12
67697;BME280;54486;51.442;6.778;2023-03-21T03:11:32;101375.41;;;10.38;88.40
67697;BME280;54486;51.442;6.778;2023-03-21T03:14:32;101378.91;;;10.40;88.29
67697;BME280;54486;51.442;6.778;2023-03-21T03:17:58;101374.53;;;10.36;88.00
67697;BME280;54486;51.442;6.778;2023-03-21T03:26:15;101379.75;;;10.30;87.97
67697;BME280;54486;51.442;6.778;2023-03-21T03:28:48;101370.16;;;10.29;88.12
67697;BME280;54486;51.442;6.778;2023-03-21T03:31:21;101379.72;;;10.27;88.10
67697;BME280;54486;51.442;6.778;2023-03-21T03:33:54;101376.22;;;10.25;87.70
67697;BME280;54486;51.442;6.778;2023-03-21T03:36:29;101371.00;;;10.22;87.52
67697;BME280;54486;51.442;6.778;2023-03-21T03:39:04;101371.00;;;10.22;87.18
67697;BME280;54486;51.442;6.778;2023-03-21T03:41:39;101358.81;;;10.19;87.54
67697;BME280;54486;51.442;6.778;2023-03-21T03:44:29;101361.41;;;10.16;87.58
67697;BME280;54486;51.442;6.778;2023-03-21T03:47:19;101362.31;;;10.20;87.34
67697;BME280;54486;51.442;6.778;2023-03-21T03:50:17;101360.53;;;10.16;87.77
67697;BME280;54486;51.442;6.778;2023-03-21T03:52:50;101360.56;;;10.22;87.42
67697;BME280;54486;51.442;6.778;2023-03-21T03:55:25;101359.69;;;10.20;87.40
67697;BME280;54486;51.442;6.778;2023-03-21T03:57:54;101351.03;;;10.24;87.46
67697;BME280;54486;51.442;6.778;2023-03-21T04:00:22;101351.88;;;10.23;87.07
67697;BME280;54486;51.442;6.778;2023-03-21T04:02:50;101351.03;;;10.24;87.53
67697;BME280;54486;51.442;6.778;2023-03-21T04:05:18;101345.78;;;10.22;87.23
67697;BME280;54486;51.442;6.778;2023-03-21T04:07:47;101351.88;;;10.23;87.54
67697;BME280;54486;51.442;6.778;2023-03-21T04:10:18;101346.66;;;10.23;87.69
67697;BME280;54486;51.442;6.778;2023-03-21T04:12:45;101345.81;;;10.24;87.46
67697;BME280;54486;51.442;6.778;2023-03-21T04:15:12;101349.28;;;10.26;87.33
67697;BME280;54486;51.442;6.778;2023-03-21T04:17:39;101345.78;;;10.22;87.51
67697;BME280;54486;51.442;6.778;2023-03-21T04:20:07;101350.13;;;10.22;87.65
67697;BME280;54486;51.442;6.778;2023-03-21T04:22:42;101340.59;;;10.25;87.11
67697;BME280;54486;51.442;6.778;2023-03-21T04:25:10;101352.75;;;10.28;87.43
67697;BME280;54486;51.442;6.778;2023-03-21T04:27:39;101348.44;;;10.27;87.59
67697;BME280;54486;51.442;6.778;2023-03-21T04:30:07;101340.59;;;10.27;87.31
67697;BME280;54486;51.442;6.778;2023-03-21T04:32:35;101341.47;;;10.29;87.88
67697;BME280;54486;51.442;6.778;2023-03-21T04:35:06;101348.44;;;10.27;87.59
67697;BME280;54486;51.442;6.778;2023-03-21T04:37:34;101350.13;;;10.25;87.95
67697;BME280;54486;51.442;6.778;2023-03-21T04:40:03;101344.06;;;10.24;88.33
67697;BME280;54486;51.442;6.778;2023-03-21T04:42:33;101344.91;;;10.25;88.45
67697;BME280;54486;51.442;6.778;2023-03-21T04:45:02;101336.25;;;10.26;88.57
67697;BME280;54486;51.442;6.778;2023-03-21T04:47:30;101339.72;;;10.25;89.24
67697;BME280;54486;51.442;6.778;2023-03-21T04:50:02;101343.19;;;10.19;90.28
67697;BME280;54486;51.442;6.778;2023-03-21T04:52:29;101337.09;;;10.17;91.69
67697;BME280;54486;51.442;6.778;2023-03-21T04:54:57;101335.28;;;10.11;92.63
67697;BME280;54486;51.442;6.778;2023-03-21T04:57:24;101330.13;;;10.16;93.24
67697;BME280;54486;51.442;6.778;2023-03-21T04:59:51;101325.72;;;10.07;94.20
67697;BME280;54486;51.442;6.778;2023-03-21T05:02:19;101327.44;;;10.05;94.57
67697;BME280;54486;51.442;6.778;2023-03-21T05:04:45;101329.19;;;10.06;94.96
67697;BME280;54486;51.442;6.778;2023-03-21T05:07:13;101324.00;;;10.09;94.98
67697;BME280;54486;51.442;6.778;2023-03-21T05:09:40;101324.88;;;10.10;95.16
67697;BME280;54486;51.442;6.778;2023-03-21T05:12:07;101320.53;;;10.10;95.22
67697;BME280;54486;51.442;6.778;2023-03-21T05:14:35;101317.03;;;10.08;95.52
67697;BME280;54486;51.442;6.778;2023-03-21T05:17:02;101315.31;;;10.07;96.04
67697;BME280;54486;51.442;6.778;2023-03-21T05:19:31;101327.41;;;9.99;96.14
67697;BME280;54486;51.442;6.778;2023-03-21T05:22:04;101320.47;;;9.95;96.50
67697;BME280;54486;51.442;6.778;2023-03-21T05:24:32;101316.09;;;9.96;97.41
67697;BME280;54486;51.442;6.778;2023-03-21T05:27:00;101312.66;;;10.00;97.74
67697;BME280;54486;51.442;6.778;2023-03-21T05:29:29;101313.53;;;9.97;98.41
67697;BME280;54486;51.442;6.778;2023-03-21T05:32:00;101318.72;;;9.97;98.59
67697;BME280;54486;51.442;6.778;2023-03-21T05:34:28;101321.34;;;9.97;98.69
67697;BME280;54486;51.442;6.778;2023-03-21T05:36:55;101316.97;;;9.96;98.98
67697;BME280;54486;51.442;6.778;2023-03-21T05:39:22;101311.78;;;9.99;98.99
67697;BME280;54486;51.442;6.778;2023-03-21T05:41:50;101311.78;;;9.99;99.11
67697;BME280;54486;51.442;6.778;2023-03-21T05:44:18;101308.31;;;10.00;99.40
67697;BME280;54486;51.442;6.778;2023-03-21T05:46:44;101312.66;;;10.00;99.70
67697;BME280;54486;51.442;6.778;2023-03-21T05:49:11;101310.94;;;10.00;99.99
67697;BME280;54486;51.442;6.778;2023-03-21T05:51:39;101310.94;;;10.00;99.63
67697;BME280;54486;51.442;6.778;2023-03-21T05:54:06;101306.56;;;10.02;99.74
67697;BME280;54486;51.442;6.778;2023-03-21T05:56:33;101305.72;;;10.00;99.96
67697;BME280;54486;51.442;6.778;2023-03-21T05:59:00;101312.69;;;10.01;100.00
67697;BME280;54486;51.442;6.778;2023-03-21T06:01:27;101312.66;;;9.98;100.00
67697;BME280;54486;51.442;6.778;2023-03-21T06:03:55;101313.53;;;9.97;100.00
67697;BME280;54486;51.442;6.778;2023-03-21T06:06:22;101317.00;;;9.99;99.84
67697;BME280;54486;51.442;6.778;2023-03-21T06:08:49;101309.19;;;10.01;100.00
67697;BME280;54486;51.442;6.778;2023-03-21T06:11:31;101316.13;;;10.00;100.00
67697;BME280;54486;51.442;6.778;2023-03-21T06:14:01;101315.28;;;10.01;99.92
67697;BME280;54486;51.442;6.778;2023-03-21T06:16:28;101310.91;;;10.02;100.00
67697;BME280;54486;51.442;6.778;2023-03-21T06:18:55;101307.47;;;10.06;99.89
67697;BME280;54486;51.442;6.778;2023-03-21T06:21:22;101315.28;;;10.04;100.00
67697;BME280;54486;51.442;6.778;2023-03-21T06:23:52;101303.13;;;10.03;100.00
67697;BME280;54486;51.442;6.778;2023-03-21T06:26:20;101304.88;;;10.04;99.54
67697;BME280;54486;51.442;6.778;2023-03-21T06:28:49;101306.59;;;10.05;99.10
67697;BME280;54486;51.442;6.778;2023-03-21T06:31:17;101308.31;;;10.03;98.80
67697;BME280;54486;51.442;6.778;2023-03-21T06:33:46;101310.06;;;10.04;98.64
67697;BME280;54486;51.442;6.778;2023-03-21T06:36:14;101317.00;;;10.05;98.44
67697;BME280;54486;51.442;6.778;2023-03-21T06:38:41;101310.06;;;10.04;97.87
67697;BME280;54486;51.442;6.778;2023-03-21T06:41:08;101314.41;;;10.05;96.79
67697;BME280;54486;51.442;6.778;2023-03-21T06:43:36;101308.31;;;9.97;96.74
67697;BME280;54486;51.442;6.778;2023-03-21T06:46:03;101315.28;;;10.01;96.30
67697;BME280;54486;51.442;6.778;2023-03-21T06:48:31;101310.09;;;10.07;95.60
67697;BME280;54486;51.442;6.778;2023-03-21T06:50:58;101310.09;;;10.07;95.57
67697;BME280;54486;51.442;6.778;2023-03-21T06:53:25;101308.34;;;10.09;95.71
67697;BME280;54486;51.442;6.778;2023-03-21T06:55:53;101315.31;;;10.10;94.92
67697;BME280;54486;51.442;6.778;2023-03-21T06:58:21;101317.13;;;10.21;94.79
67697;BME280;54486;51.442;6.778;2023-03-21T07:00:48;101315.38;;;10.35;93.99
67697;BME280;54486;51.442;6.778;2023-03-21T07:03:15;101312.78;;;10.30;93.80
67697;BME280;54486;51.442;6.778;2023-03-21T07:05:43;101310.16;;;10.32;93.96
67697;BME280;54486;51.442;6.778;2023-03-21T07:08:10;101308.47;;;10.34;94.36
67697;BME280;54486;51.442;6.778;2023-03-21T07:10:43;101305.84;;;10.35;94.31
67697;BME280;54486;51.442;6.778;2023-03-21T07:13:11;101308.47;;;10.40;94.76
67697;BME280;54486;51.442;6.778;2023-03-21T07:15:39;101318.91;;;10.43;95.23
67697;BME280;54486;51.442;6.778;2023-03-21T07:18:08;101317.16;;;10.48;95.67
67697;BME280;54486;51.442;6.778;2023-03-21T07:20:35;101320.63;;;10.53;95.60
67697;BME280;54486;51.442;6.778;2023-03-21T07:23:04;101318.91;;;10.58;95.09
67697;BME280;54486;51.442;6.778;2023-03-21T07:25:31;101318.06;;;10.60;94.69
67697;BME280;54486;51.442;6.778;2023-03-21T07:27:59;101320.69;;;10.68;94.80
67697;BME280;54486;51.442;6.778;2023-03-21T07:30:26;101311.97;;;10.71;93.90
67697;BME280;54486;51.442;6.778;2023-03-21T07:32:54;101314.59;;;10.78;93.57
67697;BME280;54486;51.442;6.778;2023-03-21T07:35:20;101305.03;;;10.77;91.85
67697;BME280;54486;51.442;6.778;2023-03-21T07:37:48;101305.00;;;10.80;93.09
67697;BME280;54486;51.442;6.778;2023-03-21T07:40:15;101301.53;;;10.90;91.35
67697;BME280;54486;51.442;6.778;2023-03-21T07:42:47;101303.25;;;10.91;91.68
67697;BME280;54486;51.442;6.778;2023-03-21T07:45:14;101297.16;;;10.98;90.73
67697;BME280;54486;51.442;6.778;2023-03-21T07:47:47;101299.78;;;11.04;90.81
67697;BME280;54486;51.442;6.778;2023-03-21T07:50:14;101299.78;;;11.13;91.21
67697;BME280;54486;51.442;6.778;2023-03-21T07:52:42;101301.50;;;11.18;91.22
67697;BME280;54486;51.442;6.778;2023-03-21T07:55:10;101294.53;;;11.23;90.98
67697;BME280;54486;51.442;6.778;2023-03-21T07:57:37;101297.16;;;11.23;91.09
67697;BME280;54486;51.442;6.778;2023-03-21T08:00:09;101310.19;;;11.24;91.50
67697;BME280;54486;51.442;6.778;2023-03-21T08:02:36;101302.38;;;11.26;91.67
67697;BME280;54486;51.442;6.778;2023-03-21T08:05:04;101305.84;;;11.23;90.72
67697;BME280;54486;51.442;6.778;2023-03-21T08:07:31;101303.25;;;11.25;90.35
67697;BME280;54486;51.442;6.778;2023-03-21T08:09:58;101307.59;;;11.24;90.13
67697;BME280;54486;51.442;6.778;2023-03-21T08:12:25;101303.25;;;11.29;90.97
67697;BME280;54486;51.442;6.778;2023-03-21T08:14:52;101311.94;;;11.30;89.55
67697;BME280;54486;51.442;6.778;2023-03-21T08:17:19;101308.47;;;11.28;90.37
67697;BME280;54486;51.442;6.778;2023-03-21T08:19:46;101311.06;;;11.32;90.63
67697;BME280;54486;51.442;6.778;2023-03-21T08:22:13;101310.19;;;11.35;90.77
67697;BME280;54486;51.442;6.778;2023-03-21T08:24:41;101314.53;;;11.34;90.26
67697;BME280;54486;51.442;6.778;2023-03-21T08:27:08;101314.50;;;11.43;90.08
67697;BME280;54486;51.442;6.778;2023-03-21T08:29:36;101308.44;;;11.40;90.11
67697;BME280;54486;51.442;6.778;2023-03-21T08:32:07;101313.66;;;11.37;91.83
67697;BME280;54486;51.442;6.778;2023-03-21T08:34:34;101313.66;;;11.40;92.24
67697;BME280;54486;51.442;6.778;2023-03-21T08:37:02;101313.63;;;11.55;91.19
67697;BME280;54486;51.442;6.778;2023-03-21T08:39:30;101312.78;;;11.48;91.71
67697;BME280;54486;51.442;6.778;2023-03-21T08:41:58;101309.25;;;11.60;92.37
67697;BME280;54486;51.442;6.778;2023-03-21T08:44:25;101317.97;;;11.59;93.04
67697;BME280;54486;51.442;6.778;2023-03-21T08:46:52;101328.41;;;11.65;93.16
67697;BME280;54486;51.442;6.778;2023-03-21T08:49:20;101319.66;;;11.78;93.02
67697;BME280;54486;51.442;6.778;2023-03-21T08:51:47;101324.94;;;11.72;92.37
67697;BME280;54486;51.442;6.778;2023-03-21T08:54:22;101317.94;;;11.71;92.48
67697;BME280;54486;51.442;6.778;2023-03-21T08:56:49;101315.34;;;11.71;93.03
67697;BME280;54486;51.442;6.778;2023-03-21T08:59:16;101313.59;;;11.75;93.29
67697;BME280;54486;51.442;6.778;2023-03-21T09:01:43;101313.59;;;11.64;94.02
67697;BME280;54486;51.442;6.778;2023-03-21T09:04:11;101317.09;;;11.63;94.94
67697;BME280;54486;51.442;6.778;2023-03-21T09:06:39;101316.25;;;11.55;95.19
67697;BME280;54486;51.442;6.778;2023-03-21T09:09:06;101311.00;;;11.56;95.92
67697;BME280;54486;51.442;6.778;2023-03-21T09:11:35;101311.88;;;11.54;96.66
67697;BME280;54486;51.442;6.778;2023-03-21T09:14:01;101311.00;;;11.58;97.11
67697;BME280;54486;51.442;6.778;2023-03-21T09:16:29;101310.13;;;11.56;96.45
67697;BME280;54486;51.442;6.778;2023-03-21T09:18:57;101315.34;;;11.56;97.25
67697;BME280;54486;51.442;6.778;2023-03-21T09:21:26;101317.09;;;11.60;97.68
67697;BME280;54486;51.442;6.778;2023-03-21T09:23:54;101313.63;;;11.70;98.51
67697;BME280;54486;51.442;6.778;2023-03-21T09:26:24;101303.13;;;11.79;98.43
67697;BME280;54486;51.442;6.778;2023-03-21T09:28:54;101304.91;;;11.74;98.04
67697;BME280;54486;51.442;6.778;2023-03-21T09:31:22;101305.75;;;11.75;98.33
67697;BME280;54486;51.442;6.778;2023-03-21T09:33:51;101303.16;;;11.70;97.64
67697;BME280;54486;51.442;6.778;2023-03-21T09:36:19;101306.63;;;11.72;97.52
67697;BME280;54486;51.442;6.778;2023-03-21T09:38:48;101304.91;;;11.74;97.90
67697;BME280;54486;51.442;6.778;2023-03-21T09:41:33;101301.34;;;11.81;99.15
67697;BME280;54486;51.442;6.778;2023-03-21T09:44:19;101302.16;;;11.94;98.10
67697;BME280;54486;51.442;6.778;2023-03-21T09:47:09;101308.25;;;12.00;97.89
67697;BME280;54486;51.442;6.778;2023-03-21T09:49:53;101302.94;;;12.12;96.58
67697;BME280;54486;51.442;6.778;2023-03-21T09:53:01;101300.34;;;12.12;95.81
67697;BME280;54486;51.442;6.778;2023-03-21T09:55:33;101297.72;;;12.12;95.28
67697;BME280;54486;51.442;6.778;2023-03-21T09:58:05;101299.53;;;12.01;96.44
67697;BME280;54486;51.442;6.778;2023-03-21T10:00:42;101297.75;;;12.06;97.01
67697;BME280;54486;51.442;6.778;2023-03-21T10:03:23;101289.06;;;12.03;96.47
67697;BME280;54486;51.442;6.778;2023-03-21T10:05:56;101296.84;;;12.15;95.89
67697;BME280;54486;51.442;6.778;2023-03-21T10:08:38;101288.91;;;12.29;96.54
67697;BME280;54486;51.442;6.778;2023-03-21T10:11:23;101282.66;;;12.48;95.54
67697;BME280;54486;51.442;6.778;2023-03-21T10:13:57;101282.66;;;12.48;95.84
67697;BME280;54486;51.442;6.778;2023-03-21T10:16:36;101284.41;;;12.50;95.94
67697;BME280;54486;51.442;6.778;2023-03-21T10:19:14;101286.19;;;12.42;95.06
67697;BME280;54486;51.442;6.778;2023-03-21T10:21:45;101288.88;;;12.36;95.71
67697;BME280;54486;51.442;6.778;2023-03-21T10:24:27;101268.00;;;12.23;96.20
67697;BME280;54486;51.442;6.778;2023-03-21T10:26:56;101268.88;;;12.23;96.72
67697;BME280;54486;51.442;6.778;2023-03-21T10:29:26;101268.94;;;12.15;97.54
67697;BME280;54486;51.442;6.778;2023-03-21T10:31:55;101260.22;;;12.16;98.05
67697;BME280;54486;51.442;6.778;2023-03-21T10:34:32;101250.63;;;12.12;97.97
67697;BME280;54486;51.442;6.778;2023-03-21T10:37:03;101248.03;;;12.09;98.07
67697;BME280;54486;51.442;6.778;2023-03-21T10:39:43;101236.63;;;12.19;98.12
67697;BME280;54486;51.442;6.778;2023-03-21T10:42:26;101237.50;;;12.23;98.70
67697;BME280;54486;51.442;6.778;2023-03-21T10:44:55;101229.66;;;12.25;97.61
67697;BME280;54486;51.442;6.778;2023-03-21T10:47:24;101226.16;;;12.23;98.00
67697;BME280;54486;51.442;6.778;2023-03-21T10:49:52;101227.00;;;12.26;97.93
67697;BME280;54486;51.442;6.778;2023-03-21T10:52:34;101227.03;;;12.20;97.55
67697;BME280;54486;51.442;6.778;2023-03-21T10:55:15;101219.19;;;12.25;97.15
67697;BME280;54486;51.442;6.778;2023-03-21T10:57:46;101208.59;;;12.40;97.78
67697;BME280;54486;51.442;6.778;2023-03-21T11:00:20;101205.06;;;12.44;97.65
67697;BME280;54486;51.442;6.778;2023-03-21T11:02:50;101191.09;;;12.45;96.43
67697;BME280;54486;51.442;6.778;2023-03-21T11:05:32;101191.97;;;12.45;95.62
67697;BME280;54486;51.442;6.778;2023-03-21T11:08:10;101191.88;;;12.54;95.88
67697;BME280;54486;51.442;6.778;2023-03-21T11:13:19;101194.28;;;12.77;94.86
67697;BME280;54486;51.442;6.778;2023-03-21T11:15:56;101186.59;;;12.60;92.85
67697;BME280;54486;51.442;6.778;2023-03-21T11:18:26;101185.72;;;12.63;93.38
67697;BME280;54486;51.442;6.778;2023-03-21T11:21:05;101187.44;;;12.64;94.16
67697;BME280;54486;51.442;6.778;2023-03-21T11:23:34;101181.22;;;12.74;94.46
67697;BME280;54486;51.442;6.778;2023-03-21T11:26:09;101178.53;;;12.80;94.47
67697;BME280;54486;51.442;6.778;2023-03-21T11:28:40;101175.03;;;12.84;93.28
67697;BME280;54486;51.442;6.778;2023-03-21T11:31:08;101175.81;;;12.91;92.68
67697;BME280;54486;51.442;6.778;2023-03-21T11:33:38;101174.66;;;13.20;92.98
67697;BME280;54486;51.442;6.778;2023-03-21T11:36:26;101165.84;;;13.24;92.72
67697;BME280;54486;51.442;6.778;2023-03-21T11:39:11;101164.72;;;13.45;91.93
67697;BME280;54486;51.442;6.778;2023-03-21T11:41:40;101169.94;;;13.48;89.18
67697;BME280;54486;51.442;6.778;2023-03-21T11:44:27;101164.56;;;13.57;89.65
67697;BME280;54486;51.442;6.778;2023-03-21T11:46:55;101172.22;;;13.74;88.75
67697;BME280;54486;51.442;6.778;2023-03-21T11:49:23;101164.94;;;13.91;86.49
67697;BME280;54486;51.442;6.778;2023-03-21T11:52:54;101168.56;;;13.84;86.81
67697;BME280;54486;51.442;6.778;2023-03-21T11:58:03;101169.69;;;13.66;85.62
67697;BME280;54486;51.442;6.778;2023-03-21T12:06:29;101165.78;;;13.31;83.64
67697;BME280;54486;51.442;6.778;2023-03-21T12:09:24;101162.41;;;13.22;83.87
67697;BME280;54486;51.442;6.778;2023-03-21T12:15:16;101152.94;;;13.06;82.43
67697;BME280;54486;51.442;6.778;2023-03-21T12:18:21;101152.16;;;13.01;83.54
67697;BME280;54486;51.442;6.778;2023-03-21T12:21:08;101140.00;;;12.94;84.01
67697;BME280;54486;51.442;6.778;2023-03-21T12:24:12;101143.44;;;12.96;84.34
67697;BME280;54486;51.442;6.778;2023-03-21T12:32:40;101136.53;;;12.89;83.55
67697;BME280;54486;51.442;6.778;2023-03-21T12:35:19;101136.50;;;12.95;85.44
67697;BME280;54486;51.442;6.778;2023-03-21T12:43:44;101125.94;;;13.01;85.76
67697;BME280;54486;51.442;6.778;2023-03-21T12:46:36;101117.19;;;13.02;84.03
67697;BME280;54486;51.442;6.778;2023-03-21T12:49:33;101108.19;;;13.24;83.23
67697;BME280;54486;51.442;6.778;2023-03-21T12:52:07;101106.44;;;13.27;84.51
67697;BME280;54486;51.442;6.778;2023-03-21T12:54:42;101103.56;;;13.46;83.44
67697;BME280;54486;51.442;6.778;2023-03-21T12:57:17;101100.69;;;13.63;82.75
67697;BME280;54486;51.442;6.778;2023-03-21T13:00:13;101109.22;;;13.77;81.93
67697;BME280;54486;51.442;6.778;2023-03-21T13:02:48;101108.44;;;13.72;80.81
67697;BME280;54486;51.442;6.778;2023-03-21T13:08:16;101096.16;;;13.72;81.64
67697;BME280;54486;51.442;6.778;2023-03-21T13:10:47;101084.78;;;13.75;80.89
67697;BME280;54486;51.442;6.778;2023-03-21T13:16:02;101067.06;;;13.89;80.95
67697;BME280;54486;51.442;6.778;2023-03-21T13:18:53;101057.16;;;14.06;79.60
67697;BME280;54486;51.442;6.778;2023-03-21T13:27:06;101056.06;;;14.19;77.55
67697;BME280;54486;51.442;6.778;2023-03-21T13:29:46;101053.53;;;14.13;77.29
67697;BME280;54486;51.442;6.778;2023-03-21T13:32:23;101043.28;;;13.98;77.61
67697;BME280;54486;51.442;6.778;2023-03-21T13:35:20;101038.56;;;14.18;76.65
67697;BME280;54486;51.442;6.778;2023-03-21T13:38:20;101030.06;;;14.53;75.78
67697;BME280;54486;51.442;6.778;2023-03-21T13:40:57;101041.38;;;14.55;74.33
67697;BME280;54486;51.442;6.778;2023-03-21T13:56:53;101037.06;;;14.53;73.17
67697;BME280;54486;51.442;6.778;2023-03-21T14:04:43;101034.66;;;14.87;72.90
67697;BME280;54486;51.442;6.778;2023-03-21T14:07:33;101029.94;;;14.59;72.84
67697;BME280;54486;51.442;6.778;2023-03-21T14:10:06;101044.63;;;14.68;72.54
67697;BME280;54486;51.442;6.778;2023-03-21T14:12:40;101032.31;;;14.71;72.30
67697;BME280;54486;51.442;6.778;2023-03-21T14:15:17;101021.69;;;15.17;73.00
67697;BME280;54486;51.442;6.778;2023-03-21T14:17:54;101017.97;;;15.66;71.63
67697;BME280;54486;51.442;6.778;2023-03-21T14:20:26;101016.75;;;16.13;69.31
67697;BME280;54486;51.442;6.778;2023-03-21T14:22:54;101021.84;;;16.20;66.31
67697;BME280;54486;51.442;6.778;2023-03-21T14:25:23;101028.50;;;16.33;67.56
67697;BME280;54486;51.442;6.778;2023-03-21T14:28:00;101022.53;;;15.93;66.79
67697;BME280;54486;51.442;6.778;2023-03-21T14:30:37;101019.13;;;15.54;67.67
67697;BME280;54486;51.442;6.778;2023-03-21T14:33:36;101019.72;;;15.27;70.22
67697;BME280;54486;51.442;6.778;2023-03-21T14:36:10;101027.31;;;15.01;71.13
67697;BME280;54486;51.442;6.778;2023-03-21T14:38:40;101017.94;;;14.89;71.16
67697;BME280;54486;51.442;6.778;2023-03-21T14:41:22;101013.19;;;14.65;70.62